createdAt,value
2017-07-12T00:01:35.030Z,1.85
2017-07-12T00:04:03.318Z,2.00
2017-07-12T00:06:30.811Z,2.25
2017-07-12T00:08:58.315Z,1.90
2017-07-12T00:11:26.600Z,1.80
2017-07-12T00:13:54.862Z,1.80
2017-07-12T00:16:23.146Z,2.10
2017-07-12T00:18:51.415Z,2.03
2017-07-12T00:21:18.961Z,1.90
2017-07-12T00:23:46.458Z,2.20
2017-07-12T00:26:14.015Z,2.30
2017-07-12T00:28:42.290Z,2.30
2017-07-12T00:31:09.786Z,2.30
2017-07-12T00:33:37.319Z,2.10
2017-07-12T00:36:04.814Z,2.50
2017-07-12T00:38:32.335Z,2.35
2017-07-12T00:40:59.838Z,2.12
2017-07-12T00:43:27.335Z,2.40
2017-07-12T00:45:55.612Z,2.03
2017-07-12T00:48:23.895Z,1.80
2017-07-12T00:50:52.176Z,2.10
2017-07-12T00:53:19.689Z,1.90
2017-07-12T00:55:47.247Z,2.62
2017-07-12T00:58:14.749Z,2.17
2017-07-12T01:00:43.007Z,2.20
2017-07-12T01:03:11.285Z,2.78
2017-07-12T01:05:38.782Z,2.25
2017-07-12T01:08:06.299Z,2.15
2017-07-12T01:10:33.798Z,1.87
2017-07-12T01:13:01.331Z,2.58
2017-07-12T01:15:29.590Z,1.80
2017-07-12T01:17:57.095Z,1.73
2017-07-12T01:20:24.615Z,2.25
2017-07-12T01:22:52.890Z,2.10
2017-07-12T01:25:20.405Z,2.70
2017-07-12T01:27:47.946Z,2.20
2017-07-12T01:30:15.467Z,1.73
2017-07-12T01:32:42.965Z,2.42
2017-07-12T01:35:10.459Z,2.05
2017-07-12T01:37:37.979Z,2.40
2017-07-12T01:40:05.475Z,1.60
2017-07-12T01:42:32.984Z,1.95
2017-07-12T01:45:00.481Z,2.42
2017-07-12T01:47:27.997Z,2.40
2017-07-12T01:49:56.255Z,2.00
2017-07-12T01:52:23.746Z,1.80
2017-07-12T01:54:51.278Z,2.50
2017-07-12T01:57:19.542Z,2.45
2017-07-12T01:59:47.067Z,2.53
2017-07-12T02:02:14.571Z,2.30
2017-07-12T02:04:42.859Z,1.95
2017-07-12T02:07:11.118Z,2.05
2017-07-12T02:09:38.611Z,1.92
2017-07-12T02:12:06.130Z,2.03
2017-07-12T02:14:33.621Z,1.83
2017-07-12T02:17:01.238Z,2.10
2017-07-12T02:19:28.800Z,2.50
2017-07-12T02:21:56.315Z,2.62
2017-07-12T02:24:23.823Z,2.40
2017-07-12T02:26:51.346Z,2.22
2017-07-12T02:29:18.844Z,2.67
2017-07-12T02:31:46.342Z,2.00
2017-07-12T02:34:13.858Z,2.10
2017-07-12T02:36:41.359Z,2.35
2017-07-12T02:39:08.878Z,1.90
2017-07-12T02:41:36.370Z,2.10
2017-07-12T02:44:04.666Z,2.60
2017-07-12T02:46:32.170Z,2.42
2017-07-12T02:48:59.666Z,2.10
2017-07-12T02:51:27.183Z,2.42
2017-07-12T02:53:54.699Z,2.60
2017-07-12T02:56:22.211Z,2.60
2017-07-12T02:58:49.715Z,2.58
2017-07-12T03:01:17.233Z,2.80
2017-07-12T03:03:44.731Z,2.58
2017-07-12T03:06:12.229Z,4.00
2017-07-12T03:08:39.770Z,2.80
2017-07-12T03:11:07.278Z,1.90
2017-07-12T03:13:34.799Z,2.25
2017-07-12T03:16:02.294Z,2.55
2017-07-12T03:18:29.807Z,2.10
2017-07-12T03:20:57.300Z,2.62
2017-07-12T03:23:24.814Z,2.78
2017-07-12T03:25:52.346Z,2.72
2017-07-12T03:28:19.843Z,2.50
2017-07-12T03:30:47.358Z,2.80
2017-07-12T03:33:15.623Z,2.60
2017-07-12T03:35:43.146Z,2.37
2017-07-12T03:38:10.650Z,2.25
2017-07-12T03:40:38.907Z,2.47
2017-07-12T03:43:06.425Z,2.50
2017-07-12T03:45:33.922Z,2.70
2017-07-12T03:48:01.427Z,2.15
2017-07-12T03:50:28.927Z,2.55
2017-07-12T03:52:56.447Z,2.55
2017-07-12T03:55:23.942Z,2.50
2017-07-12T03:57:51.442Z,2.42
2017-07-12T04:00:19.714Z,2.65
2017-07-12T04:02:47.978Z,2.75
2017-07-12T04:05:15.494Z,2.25
2017-07-12T04:07:42.998Z,2.33
2017-07-12T04:10:10.522Z,2.58
2017-07-12T04:12:38.019Z,2.62
2017-07-12T04:15:06.295Z,2.55
2017-07-12T04:17:33.806Z,2.60
2017-07-12T04:20:01.449Z,2.15
2017-07-12T04:22:28.967Z,2.20
2017-07-12T04:24:56.690Z,2.47
2017-07-12T04:27:24.995Z,2.60
2017-07-12T04:29:52.498Z,2.35
2017-07-12T04:32:20.008Z,2.12
2017-07-12T04:34:47.535Z,1.80
2017-07-12T04:37:15.049Z,1.95
2017-07-12T04:39:42.572Z,2.37
2017-07-12T04:42:10.864Z,2.72
2017-07-12T04:44:38.387Z,2.20
2017-07-12T04:47:05.884Z,1.90
2017-07-12T04:49:33.416Z,1.92
2017-07-12T04:52:00.926Z,2.35
2017-07-12T04:54:28.422Z,1.87
2017-07-12T04:56:55.932Z,2.47
2017-07-12T04:59:23.426Z,1.85
2017-07-12T05:01:50.945Z,2.37
2017-07-12T05:04:18.442Z,2.00
2017-07-12T05:06:45.940Z,2.55
2017-07-12T05:09:14.226Z,1.98
2017-07-12T05:11:41.726Z,2.35
2017-07-12T05:14:09.253Z,1.70
2017-07-12T05:16:36.763Z,2.03
2017-07-12T05:19:04.290Z,2.30
2017-07-12T05:21:31.798Z,2.10
2017-07-12T05:23:59.294Z,2.00
2017-07-12T05:26:26.815Z,2.00
2017-07-12T05:28:54.313Z,2.22
2017-07-12T05:31:21.854Z,2.58
2017-07-12T05:33:49.350Z,2.42
2017-07-12T05:36:16.871Z,2.47
2017-07-12T05:38:45.135Z,2.30
2017-07-12T05:41:13.403Z,2.80
2017-07-12T05:43:40.914Z,2.22
2017-07-12T05:46:08.414Z,1.80
2017-07-12T05:48:35.931Z,2.50
2017-07-12T05:51:03.442Z,2.12
2017-07-12T05:53:30.967Z,2.30
2017-07-12T05:55:58.464Z,2.25
2017-07-12T05:58:26.736Z,2.92
2017-07-12T06:00:54.251Z,2.50
2017-07-12T06:03:21.751Z,2.40
2017-07-12T06:05:49.266Z,2.67
2017-07-12T06:08:16.762Z,2.97
2017-07-12T06:10:44.286Z,1.77
2017-07-12T06:13:11.778Z,2.08
2017-07-12T06:15:39.282Z,2.30
2017-07-12T06:18:06.811Z,2.30
2017-07-12T06:20:34.311Z,1.98
2017-07-12T06:23:01.826Z,2.28
2017-07-12T06:25:29.331Z,2.30
2017-07-12T06:27:56.851Z,2.17
2017-07-12T06:30:24.350Z,2.33
2017-07-12T06:32:51.860Z,2.40
2017-07-12T06:35:19.372Z,2.33
2017-07-12T06:37:46.876Z,2.00
2017-07-12T06:40:14.386Z,2.15
2017-07-12T06:42:41.888Z,1.98
2017-07-12T06:45:09.415Z,2.22
2017-07-12T06:47:36.919Z,2.03
2017-07-12T06:50:04.418Z,2.10
2017-07-12T06:52:31.943Z,2.00
2017-07-12T06:54:59.455Z,2.60
2017-07-12T06:57:26.971Z,2.50
2017-07-12T06:59:55.294Z,2.12
2017-07-12T07:02:22.812Z,1.75
2017-07-12T07:04:50.315Z,2.40
2017-07-12T07:07:17.814Z,1.95
2017-07-12T07:09:46.094Z,2.85
2017-07-12T07:12:14.354Z,2.37
2017-07-12T07:14:41.875Z,2.30
2017-07-12T07:17:09.371Z,2.05
2017-07-12T07:19:36.891Z,2.03
2017-07-12T07:22:04.386Z,2.45
2017-07-12T07:24:31.879Z,2.72
2017-07-12T07:26:59.386Z,2.22
2017-07-12T07:29:26.879Z,2.70
2017-07-12T07:31:54.399Z,2.67
2017-07-12T07:34:21.894Z,2.78
2017-07-12T07:36:50.178Z,3.17
2017-07-12T07:39:18.448Z,2.78
2017-07-12T07:41:46.718Z,3.10
2017-07-12T07:44:14.230Z,3.05
2017-07-12T07:46:41.735Z,2.30
2017-07-12T07:49:09.251Z,3.03
2017-07-12T07:51:36.750Z,2.85
2017-07-12T07:54:07.825Z,2.85
2017-07-12T07:56:35.326Z,3.00
2017-07-12T07:59:02.822Z,3.30
2017-07-12T08:01:31.102Z,3.03
2017-07-12T08:03:58.603Z,3.25
2017-07-12T08:06:26.126Z,3.55
2017-07-12T08:08:53.627Z,3.95
2017-07-12T08:11:21.190Z,3.12
2017-07-12T08:13:48.695Z,3.45
2017-07-12T08:16:16.199Z,3.37
2017-07-12T08:18:43.724Z,3.45
2017-07-12T08:21:11.219Z,3.20
2017-07-12T08:23:38.733Z,3.40
2017-07-12T08:26:06.991Z,3.00
2017-07-12T08:28:34.511Z,3.67
2017-07-12T08:31:02.010Z,3.40
2017-07-12T08:33:29.503Z,3.40
2017-07-12T08:35:57.061Z,3.97
2017-07-12T08:38:24.573Z,4.32
2017-07-12T08:40:52.087Z,3.45
2017-07-12T08:43:19.602Z,4.03
2017-07-12T08:45:47.119Z,3.67
2017-07-12T08:48:14.619Z,4.25
2017-07-12T08:50:42.138Z,3.62
2017-07-12T08:53:09.635Z,3.22
2017-07-12T08:55:37.138Z,3.58
2017-07-12T08:58:04.658Z,3.65
2017-07-12T09:00:32.154Z,3.75
2017-07-12T09:02:59.667Z,4.35
2017-07-12T09:05:27.159Z,3.35
2017-07-12T09:07:54.675Z,3.85
2017-07-12T09:10:22.178Z,3.80
2017-07-12T09:12:49.679Z,3.58
2017-07-12T09:15:17.194Z,3.75
2017-07-12T09:17:44.695Z,3.53
2017-07-12T09:20:12.211Z,4.20
2017-07-12T09:22:39.729Z,3.75
2017-07-12T09:34:57.238Z,4.70
2017-07-12T09:37:24.750Z,4.35
2017-07-12T09:39:52.243Z,3.87
2017-07-12T09:42:19.759Z,3.72
2017-07-12T09:47:21.274Z,5.32
2017-07-12T09:49:48.766Z,4.28
2017-07-12T09:52:16.271Z,4.28
2017-07-12T09:54:43.782Z,3.40
2017-07-12T09:57:11.278Z,3.90
2017-07-12T09:59:38.794Z,2.97
2017-07-12T10:02:07.062Z,2.95
2017-07-12T10:04:34.576Z,2.85
2017-07-12T10:07:02.076Z,2.55
2017-07-12T10:09:29.614Z,2.85
2017-07-12T10:11:57.109Z,2.78
2017-07-12T10:14:25.371Z,2.62
2017-07-12T10:16:52.880Z,2.17
2017-07-12T10:19:20.386Z,2.40
2017-07-12T10:21:47.898Z,2.30
2017-07-12T10:24:15.405Z,2.25
2017-07-12T10:26:42.915Z,2.28
2017-07-12T10:29:10.430Z,2.37
2017-07-12T10:31:37.950Z,2.35
2017-07-12T10:34:05.451Z,2.62
2017-07-12T10:36:32.963Z,2.30
2017-07-12T10:39:00.482Z,2.50
2017-07-12T10:41:27.986Z,2.55
2017-07-12T10:43:55.515Z,2.60
2017-07-12T10:46:23.012Z,2.45
2017-07-12T10:48:50.531Z,2.70
2017-07-12T10:51:18.039Z,2.50
2017-07-12T10:53:45.574Z,2.50
2017-07-12T10:56:13.085Z,2.10
2017-07-12T10:58:40.577Z,2.30
2017-07-12T11:01:08.247Z,2.12
2017-07-12T11:03:35.754Z,3.30
2017-07-12T11:06:03.266Z,2.80
2017-07-12T11:08:30.770Z,2.42
2017-07-12T11:10:58.286Z,2.55
2017-07-12T11:13:25.787Z,2.50
2017-07-12T11:15:53.311Z,2.05
2017-07-12T11:18:20.813Z,2.30
2017-07-12T11:20:49.089Z,2.53
2017-07-12T11:23:17.365Z,2.80
2017-07-12T11:25:44.863Z,2.28
2017-07-12T11:28:12.378Z,2.28
2017-07-12T11:30:39.885Z,2.25
2017-07-12T11:33:07.414Z,2.15
2017-07-12T11:35:34.918Z,2.60
2017-07-12T11:38:02.455Z,2.37
2017-07-12T11:40:29.960Z,2.50
2017-07-12T11:42:57.458Z,2.62
2017-07-12T11:45:24.966Z,2.33
2017-07-12T11:47:52.471Z,2.75
2017-07-12T11:50:20.005Z,2.12
2017-07-12T11:52:47.503Z,2.22
2017-07-12T11:55:15.026Z,2.50
2017-07-12T11:57:43.290Z,2.30
2017-07-12T12:00:10.782Z,2.30
2017-07-12T12:02:38.299Z,2.25
2017-07-12T12:05:05.796Z,1.90
2017-07-12T12:07:33.313Z,1.80
2017-07-12T12:10:00.806Z,1.90
2017-07-12T12:12:29.095Z,2.00
2017-07-12T12:14:56.590Z,1.90
2017-07-12T12:17:24.098Z,2.10
2017-07-12T12:19:52.374Z,1.62
2017-07-12T12:22:20.650Z,2.20
2017-07-12T12:24:48.928Z,2.30
2017-07-12T12:27:16.458Z,1.92
2017-07-12T12:29:43.972Z,1.95
2017-07-12T12:32:11.479Z,2.45
2017-07-12T12:34:38.982Z,2.17
2017-07-12T12:37:06.490Z,2.10
2017-07-12T12:39:33.982Z,1.90
2017-07-12T12:42:02.258Z,2.20
2017-07-12T12:44:30.567Z,2.30
2017-07-12T12:46:58.094Z,2.17
2017-07-12T12:49:26.365Z,1.83
2017-07-12T12:51:54.635Z,2.12
2017-07-12T12:54:22.919Z,2.25
2017-07-12T12:56:50.423Z,2.37
2017-07-12T12:59:17.943Z,1.73
2017-07-12T13:01:46.202Z,2.20
2017-07-12T13:04:19.498Z,1.70
2017-07-12T13:06:46.994Z,2.05
2017-07-12T13:09:14.514Z,2.67
2017-07-12T13:11:42.013Z,2.10
2017-07-12T13:14:09.534Z,2.12
2017-07-12T13:16:37.054Z,1.62
2017-07-12T13:19:04.545Z,2.00
2017-07-12T13:21:32.064Z,2.10
2017-07-12T13:23:59.561Z,1.80
2017-07-12T13:26:27.077Z,1.52
2017-07-12T13:28:54.574Z,2.17
2017-07-12T13:31:22.114Z,2.20
2017-07-12T13:33:49.610Z,2.00
2017-07-12T13:36:17.874Z,2.00
2017-07-12T13:38:45.399Z,2.30
2017-07-12T13:41:12.896Z,1.73
2017-07-12T13:43:40.411Z,2.10
2017-07-12T13:46:07.911Z,2.05
2017-07-12T13:48:35.426Z,1.73
2017-07-12T13:51:02.930Z,1.70
2017-07-12T13:53:30.465Z,1.90
2017-07-12T13:55:58.798Z,1.70
2017-07-12T13:58:26.971Z,1.80
2017-07-12T14:00:54.486Z,2.05
2017-07-12T14:03:21.986Z,1.40
2017-07-12T14:05:50.263Z,2.03
2017-07-12T14:08:17.770Z,1.80
2017-07-12T14:10:45.326Z,1.92
2017-07-12T14:13:12.828Z,2.03
2017-07-12T14:15:41.120Z,1.60
2017-07-12T14:18:09.394Z,1.10
2017-07-12T14:20:37.653Z,1.73
2017-07-12T14:23:05.934Z,1.75
2017-07-12T14:25:34.206Z,1.60
2017-07-12T14:28:02.494Z,1.85
2017-07-12T14:30:30.760Z,1.65
2017-07-12T14:32:59.038Z,1.52
2017-07-12T14:35:27.300Z,1.52
2017-07-12T14:37:54.806Z,1.70
2017-07-12T14:40:22.331Z,1.40
2017-07-12T14:42:49.831Z,1.30
2017-07-12T14:45:17.349Z,1.50
2017-07-12T14:47:45.610Z,1.67
2017-07-12T14:50:13.130Z,1.45
2017-07-12T14:52:40.638Z,1.50
2017-07-12T14:55:08.915Z,1.50
2017-07-12T14:57:37.207Z,1.33
2017-07-12T15:00:05.478Z,1.60
2017-07-12T15:02:32.990Z,1.50
2017-07-12T15:05:00.498Z,1.50
2017-07-12T15:07:28.782Z,1.75
2017-07-12T15:09:56.318Z,1.42
2017-07-12T15:12:23.834Z,1.40
2017-07-12T15:14:51.354Z,1.60
2017-07-12T15:17:19.619Z,1.50
2017-07-12T15:19:47.134Z,1.40
2017-07-12T15:22:14.637Z,1.10
2017-07-12T15:24:42.930Z,1.52
2017-07-12T15:27:10.429Z,1.20
2017-07-12T15:29:37.926Z,1.23
2017-07-12T15:32:05.463Z,1.45
2017-07-12T15:34:32.963Z,1.30
2017-07-12T15:37:01.241Z,1.37
2017-07-12T15:39:29.498Z,1.40
2017-07-12T15:41:57.026Z,1.48
2017-07-12T15:44:24.521Z,1.50
2017-07-12T15:46:52.025Z,1.08
2017-07-12T15:49:19.554Z,1.25
2017-07-12T15:51:47.831Z,1.60
2017-07-12T15:54:16.131Z,1.17
2017-07-12T15:56:43.635Z,1.52
2017-07-12T15:59:11.170Z,1.40
2017-07-12T16:01:38.679Z,1.40
2017-07-12T16:04:06.955Z,1.40
2017-07-12T16:06:35.247Z,1.42
2017-07-12T16:09:02.793Z,1.27
2017-07-12T16:11:31.075Z,1.62
2017-07-12T16:13:59.351Z,1.12
2017-07-12T16:16:27.670Z,1.30
2017-07-12T16:18:55.179Z,1.23
2017-07-12T16:21:23.492Z,1.20
2017-07-12T16:23:51.037Z,1.15
2017-07-12T16:26:18.551Z,1.10
2017-07-12T16:28:46.064Z,1.30
2017-07-12T16:31:13.566Z,1.30
2017-07-12T16:33:41.083Z,1.02
2017-07-12T16:36:08.591Z,0.90
2017-07-12T16:38:36.095Z,1.08
2017-07-12T16:41:03.619Z,1.10
2017-07-12T16:43:31.142Z,1.00
2017-07-12T16:45:58.675Z,1.30
2017-07-12T16:48:26.191Z,1.20
2017-07-12T16:50:53.720Z,1.12
2017-07-12T16:53:21.247Z,1.10
2017-07-12T16:55:48.774Z,1.05
2017-07-12T16:58:17.143Z,1.30
2017-07-12T17:00:44.656Z,1.25
2017-07-12T17:03:12.182Z,1.40
2017-07-12T17:05:40.496Z,1.60
2017-07-12T17:08:08.070Z,1.67
2017-07-12T17:10:35.606Z,1.00
2017-07-12T17:13:03.126Z,1.00
2017-07-12T17:15:30.684Z,1.37
2017-07-12T17:17:58.186Z,1.05
2017-07-12T17:20:25.731Z,1.10
2017-07-12T17:22:54.179Z,1.15
2017-07-12T17:25:21.724Z,1.25
2017-07-12T17:27:49.226Z,1.27
2017-07-12T17:30:16.727Z,1.37
2017-07-12T17:32:44.251Z,1.60
2017-07-12T17:35:11.787Z,1.20
2017-07-12T17:37:40.082Z,1.30
2017-07-12T17:40:08.346Z,1.30
2017-07-12T17:42:36.646Z,1.05
2017-07-12T17:45:04.147Z,1.27
2017-07-12T17:47:31.662Z,1.25
2017-07-12T17:49:59.195Z,1.40
2017-07-12T17:52:26.706Z,1.50
2017-07-12T17:54:54.245Z,1.10
2017-07-12T17:57:21.751Z,1.30
2017-07-12T17:59:49.282Z,1.23
2017-07-12T18:02:16.782Z,1.20
2017-07-12T18:04:44.282Z,1.20
2017-07-12T18:07:11.830Z,1.20
2017-07-12T18:09:40.090Z,1.00
2017-07-12T18:12:08.374Z,1.15
2017-07-12T18:14:36.651Z,1.23
2017-07-12T18:17:04.214Z,1.60
2017-07-12T18:19:32.530Z,1.23
2017-07-12T18:22:00.026Z,1.35
2017-07-12T18:24:27.545Z,1.00
2017-07-12T18:26:55.050Z,1.12
2017-07-12T18:29:22.571Z,1.17
2017-07-12T18:31:50.074Z,1.00
2017-07-12T18:34:17.593Z,1.67
2017-07-12T18:36:45.095Z,1.75
2017-07-12T18:39:12.589Z,1.80
2017-07-12T18:41:40.103Z,2.15
2017-07-12T18:44:07.597Z,1.83
2017-07-12T18:46:35.122Z,1.77
2017-07-12T18:49:02.615Z,1.65
2017-07-12T18:51:30.139Z,1.77
2017-07-12T18:53:57.647Z,1.45
2017-07-12T18:56:25.147Z,1.23
2017-07-12T18:58:52.678Z,1.45
2017-07-12T19:01:20.175Z,1.55
2017-07-12T19:03:47.691Z,1.73
2017-07-12T19:06:15.195Z,1.20
2017-07-12T19:08:42.719Z,1.08
2017-07-12T19:11:10.247Z,1.33
2017-07-12T19:13:37.767Z,1.27
2017-07-12T19:16:05.299Z,1.60
2017-07-12T19:18:32.799Z,1.48
2017-07-12T19:21:00.321Z,1.33
2017-07-12T19:23:27.814Z,1.50
2017-07-12T19:25:55.334Z,1.42
2017-07-12T19:28:22.833Z,1.55
2017-07-12T19:30:51.094Z,1.50
2017-07-12T19:33:18.602Z,1.30
2017-07-12T19:35:46.172Z,1.60
2017-07-12T19:38:13.692Z,1.40
2017-07-12T19:40:41.973Z,1.58
2017-07-12T19:43:09.524Z,1.67
2017-07-12T19:45:37.028Z,1.50
2017-07-12T19:48:04.535Z,1.40
2017-07-12T19:50:32.054Z,1.30
2017-07-12T19:52:59.551Z,1.60
2017-07-12T19:55:27.072Z,1.40
2017-07-12T19:57:54.694Z,1.25
2017-07-12T20:00:22.976Z,1.23
2017-07-12T20:02:50.518Z,1.33
2017-07-12T20:05:18.022Z,1.20
2017-07-12T20:07:45.581Z,1.70
2017-07-12T20:10:13.111Z,1.90
2017-07-12T20:12:40.675Z,1.50
2017-07-12T20:15:08.950Z,1.33
2017-07-12T20:17:37.235Z,1.35
2017-07-12T20:20:04.759Z,1.25
2017-07-12T20:22:32.271Z,1.40
2017-07-12T20:24:59.788Z,1.60
2017-07-12T20:27:27.287Z,1.05
2017-07-12T20:29:54.810Z,1.40
2017-07-12T20:32:23.094Z,1.10
2017-07-12T20:34:51.378Z,1.58
2017-07-12T20:37:19.642Z,1.10
2017-07-12T20:39:47.138Z,1.23
2017-07-12T20:42:14.654Z,1.50
2017-07-12T20:44:42.153Z,1.40
2017-07-12T20:47:09.679Z,1.50
2017-07-12T20:49:37.940Z,1.05
2017-07-12T20:52:05.463Z,1.30
2017-07-12T20:54:33.134Z,1.20
2017-07-12T20:57:00.682Z,1.52
2017-07-12T20:59:28.190Z,1.15
2017-07-12T21:01:56.472Z,1.27
2017-07-12T21:04:24.056Z,1.05
2017-07-12T21:06:51.569Z,1.27
2017-07-12T21:09:19.087Z,1.20
2017-07-12T21:11:46.579Z,1.25
2017-07-12T21:14:14.147Z,1.05
2017-07-12T21:16:42.219Z,1.50
2017-07-12T21:19:09.805Z,1.20
2017-07-12T21:21:37.329Z,1.20
2017-07-12T21:24:04.830Z,1.40
2017-07-12T21:26:32.355Z,1.70
2017-07-12T21:28:59.854Z,1.60
2017-07-12T21:31:27.377Z,1.10
2017-07-12T21:33:54.875Z,1.25
2017-07-12T21:36:22.422Z,1.25
2017-07-12T21:38:50.682Z,1.20
2017-07-12T21:41:18.204Z,1.23
2017-07-12T21:43:45.706Z,1.10
2017-07-12T21:46:13.967Z,1.00
2017-07-12T21:48:41.486Z,0.90
2017-07-12T21:51:08.982Z,1.00
2017-07-12T21:53:54.047Z,0.80
2017-07-12T21:56:39.251Z,0.70
2017-07-12T21:59:25.450Z,0.70
2017-07-12T22:02:11.396Z,0.93
2017-07-12T22:04:56.363Z,0.80
2017-07-12T22:07:41.528Z,0.70
2017-07-12T22:10:26.763Z,1.12
2017-07-12T22:13:12.754Z,1.00
2017-07-12T22:15:57.975Z,0.70
2017-07-12T22:18:43.087Z,0.62
2017-07-12T22:21:29.023Z,0.70
2017-07-12T22:24:14.154Z,0.90
2017-07-12T22:26:59.285Z,0.70
2017-07-12T22:29:44.499Z,1.48
2017-07-12T22:32:29.562Z,0.90
2017-07-12T22:35:14.794Z,0.70
2017-07-12T22:37:47.834Z,1.00
2017-07-12T22:40:21.808Z,1.00
2017-07-12T22:42:54.898Z,0.88
2017-07-12T22:45:22.423Z,0.90
2017-07-12T22:47:49.922Z,0.80
2017-07-12T22:50:17.435Z,1.00
2017-07-12T22:52:45.703Z,0.90
2017-07-12T22:55:13.230Z,1.10
2017-07-12T22:57:40.758Z,1.10
2017-07-12T23:00:08.242Z,0.80
2017-07-12T23:02:35.759Z,1.00
2017-07-12T23:05:03.257Z,1.05
2017-07-12T23:07:30.785Z,1.10
2017-07-12T23:09:58.286Z,1.23
2017-07-12T23:12:25.805Z,1.30
2017-07-12T23:14:53.306Z,1.10
2017-07-12T23:17:20.841Z,1.20
2017-07-12T23:19:48.342Z,1.20
2017-07-12T23:22:15.840Z,1.45
2017-07-12T23:24:43.371Z,1.10
2017-07-12T23:27:10.874Z,1.30
2017-07-12T23:29:38.382Z,1.33
2017-07-12T23:32:05.876Z,1.42
2017-07-12T23:34:34.171Z,2.08
2017-07-12T23:37:01.717Z,1.42
2017-07-12T23:39:29.234Z,1.40
2017-07-12T23:41:56.734Z,1.65
2017-07-12T23:44:24.998Z,1.30
2017-07-12T23:46:53.275Z,1.33
2017-07-12T23:49:21.542Z,1.23
2017-07-12T23:51:49.054Z,1.70
2017-07-12T23:54:16.555Z,1.77
2017-07-12T23:56:44.067Z,1.60
2017-07-12T23:59:11.570Z,1.85
